sensor_id;sensor_type;location;lat;lon;timestamp;pressure;altitude;pressure_sealevel;temperature;humidity
20228;BME280;12195;55.790;37.572;2023-07-02T00:00:38;98042.17;;;18.55;75.78
20228;BME280;12195;55.790;37.572;2023-07-02T00:03:22;98041.50;;;18.53;76.05
20228;BME280;12195;55.790;37.572;2023-07-02T00:05:55;98034.78;;;18.26;76.50
20228;BME280;12195;55.790;37.572;2023-07-02T00:08:28;98041.08;;;18.33;76.33
20228;BME280;12195;55.790;37.572;2023-07-02T00:11:13;98033.53;;;18.53;76.34
20228;BME280;12195;55.790;37.572;2023-07-02T00:13:46;98037.77;;;18.31;76.47
20228;BME280;12195;55.790;37.572;2023-07-02T00:16:29;98040.99;;;18.57;76.34
20228;BME280;12195;55.790;37.572;2023-07-02T00:19:01;98035.12;;;18.31;76.68
20228;BME280;12195;55.790;37.572;2023-07-02T00:21:45;98043.99;;;18.54;76.52
20228;BME280;12195;55.790;37.572;2023-07-02T00:24:30;98039.22;;;18.50;76.79
20228;BME280;12195;55.790;37.572;2023-07-02T00:27:14;98050.52;;;18.44;77.14
20228;BME280;12195;55.790;37.572;2023-07-02T00:29:47;98046.14;;;18.12;77.46
20228;BME280;12195;55.790;37.572;2023-07-02T00:32:36;98044.91;;;18.31;77.68
20228;BME280;12195;55.790;37.572;2023-07-02T00:35:09;98045.33;;;18.04;77.93
20228;BME280;12195;55.790;37.572;2023-07-02T00:37:51;98059.54;;;18.27;77.97
20228;BME280;12195;55.790;37.572;2023-07-02T00:40:24;98053.52;;;17.94;78.45
20228;BME280;12195;55.790;37.572;2023-07-02T00:43:09;98049.13;;;18.09;78.82
20228;BME280;12195;55.790;37.572;2023-07-02T00:45:54;98054.14;;;18.04;79.01
20228;BME280;12195;55.790;37.572;2023-07-02T00:48:37;98052.32;;;18.05;79.04
20228;BME280;12195;55.790;37.572;2023-07-02T00:53:57;98058.63;;;17.96;79.62
20228;BME280;12195;55.790;37.572;2023-07-02T00:56:30;98057.69;;;17.81;79.44
20228;BME280;12195;55.790;37.572;2023-07-02T00:59:13;98056.48;;;17.99;79.73
20228;BME280;12195;55.790;37.572;2023-07-02T01:01:46;98057.54;;;17.74;79.72
20228;BME280;12195;55.790;37.572;2023-07-02T01:04:32;98074.08;;;17.92;80.10
20228;BME280;12195;55.790;37.572;2023-07-02T01:07:05;98068.65;;;17.70;80.09
20228;BME280;12195;55.790;37.572;2023-07-02T01:09:52;98077.27;;;17.88;80.34
20228;BME280;12195;55.790;37.572;2023-07-02T01:12:35;98070.64;;;17.84;80.40
20228;BME280;12195;55.790;37.572;2023-07-02T01:15:10;98064.35;;;17.61;80.65
20228;BME280;12195;55.790;37.572;2023-07-02T01:17:53;98067.80;;;17.77;81.33
20228;BME280;12195;55.790;37.572;2023-07-02T01:20:27;98068.17;;;17.58;81.09
20228;BME280;12195;55.790;37.572;2023-07-02T01:23:14;98077.45;;;17.78;81.18
20228;BME280;12195;55.790;37.572;2023-07-02T01:25:47;98069.66;;;17.61;80.94
20228;BME280;12195;55.790;37.572;2023-07-02T01:28:36;98076.44;;;17.79;81.05
20228;BME280;12195;55.790;37.572;2023-07-02T01:31:09;98078.80;;;17.58;81.25
20228;BME280;12195;55.790;37.572;2023-07-02T01:33:52;98086.05;;;17.80;81.00
20228;BME280;12195;55.790;37.572;2023-07-02T01:36:37;98082.06;;;17.84;81.18
20228;BME280;12195;55.790;37.572;2023-07-02T01:39:10;98078.95;;;17.65;80.74
20228;BME280;12195;55.790;37.572;2023-07-02T01:41:52;98084.09;;;17.66;80.74
20228;BME280;12195;55.790;37.572;2023-07-02T01:44:39;98072.77;;;17.88;80.70
20228;BME280;12195;55.790;37.572;2023-07-02T01:47:23;98085.40;;;17.86;80.84
20228;BME280;12195;55.790;37.572;2023-07-02T01:49:56;98072.47;;;17.67;80.61
20228;BME280;12195;55.790;37.572;2023-07-02T01:52:41;98083.22;;;17.90;80.96
20228;BME280;12195;55.790;37.572;2023-07-02T01:55:14;98081.59;;;17.73;80.48
20228;BME280;12195;55.790;37.572;2023-07-02T01:58:00;98088.52;;;17.98;80.69
20228;BME280;12195;55.790;37.572;2023-07-02T02:00:33;98086.05;;;17.80;80.35
20228;BME280;12195;55.790;37.572;2023-07-02T02:03:17;98098.28;;;18.05;80.82
20228;BME280;12195;55.790;37.572;2023-07-02T02:05:51;98089.21;;;17.92;80.48
20228;BME280;12195;55.790;37.572;2023-07-02T02:08:33;98091.62;;;18.17;80.20
20228;BME280;12195;55.790;37.572;2023-07-02T02:11:06;98083.69;;;18.01;80.00
20228;BME280;12195;55.790;37.572;2023-07-02T02:13:48;98098.39;;;18.28;79.52
20228;BME280;12195;55.790;37.572;2023-07-02T02:16:21;98091.16;;;18.06;79.54
20228;BME280;12195;55.790;37.572;2023-07-02T02:19:04;98105.36;;;18.37;79.24
20228;BME280;12195;55.790;37.572;2023-07-02T02:21:47;98094.23;;;18.41;79.05
20228;BME280;12195;55.790;37.572;2023-07-02T02:24:29;98091.06;;;18.46;79.14
20228;BME280;12195;55.790;37.572;2023-07-02T02:27:12;98081.20;;;18.54;78.46
20228;BME280;12195;55.790;37.572;2023-07-02T02:29:54;98086.66;;;18.61;77.82
20228;BME280;12195;55.790;37.572;2023-07-02T02:32:39;98077.16;;;18.66;77.55
20228;BME280;12195;55.790;37.572;2023-07-02T02:35:12;98079.25;;;18.48;77.40
20228;BME280;12195;55.790;37.572;2023-07-02T02:37:57;98090.38;;;18.82;77.34
20228;BME280;12195;55.790;37.572;2023-07-02T02:40:30;98079.02;;;18.66;76.70
20228;BME280;12195;55.790;37.572;2023-07-02T02:43:12;98098.94;;;19.00;76.22
20228;BME280;12195;55.790;37.572;2023-07-02T02:45:47;98092.06;;;18.75;76.16
20228;BME280;12195;55.790;37.572;2023-07-02T02:48:31;98095.27;;;19.01;76.29
20228;BME280;12195;55.790;37.572;2023-07-02T02:51:04;98091.39;;;18.81;75.81
20228;BME280;12195;55.790;37.572;2023-07-02T02:53:46;98102.82;;;19.12;75.30
20228;BME280;12195;55.790;37.572;2023-07-02T02:56:19;98089.70;;;18.88;75.54
20228;BME280;12195;55.790;37.572;2023-07-02T02:59:04;98101.30;;;19.18;75.59
20228;BME280;12195;55.790;37.572;2023-07-02T03:01:37;98092.95;;;18.98;74.83
20228;BME280;12195;55.790;37.572;2023-07-02T03:04:21;98105.78;;;19.25;75.22
20228;BME280;12195;55.790;37.572;2023-07-02T03:06:55;98097.92;;;19.01;74.61
20228;BME280;12195;55.790;37.572;2023-07-02T03:09:40;98097.80;;;19.25;74.81
20228;BME280;12195;55.790;37.572;2023-07-02T03:12:25;98107.09;;;19.29;74.50
20228;BME280;12195;55.790;37.572;2023-07-02T03:15:07;98118.37;;;19.31;74.44
20228;BME280;12195;55.790;37.572;2023-07-02T03:17:50;98117.41;;;19.24;74.93
20228;BME280;12195;55.790;37.572;2023-07-02T03:20:24;98121.33;;;19.06;74.46
20228;BME280;12195;55.790;37.572;2023-07-02T03:23:09;98126.19;;;19.33;74.45
20228;BME280;12195;55.790;37.572;2023-07-02T03:25:42;98128.50;;;19.05;74.21
20228;BME280;12195;55.790;37.572;2023-07-02T03:28:26;98134.22;;;19.25;74.85
20228;BME280;12195;55.790;37.572;2023-07-02T03:30:59;98129.85;;;19.01;74.22
20228;BME280;12195;55.790;37.572;2023-07-02T03:33:43;98132.20;;;19.27;74.67
20228;BME280;12195;55.790;37.572;2023-07-02T03:36:16;98130.86;;;19.00;74.84
20228;BME280;12195;55.790;37.572;2023-07-02T03:38:59;98129.02;;;19.31;74.39
20228;BME280;12195;55.790;37.572;2023-07-02T03:41:44;98127.72;;;19.27;74.54
20228;BME280;12195;55.790;37.572;2023-07-02T03:44:17;98124.83;;;19.06;74.48
20228;BME280;12195;55.790;37.572;2023-07-02T03:47:00;98138.59;;;19.40;74.22
20228;BME280;12195;55.790;37.572;2023-07-02T03:49:33;98136.37;;;19.29;73.88
20228;BME280;12195;55.790;37.572;2023-07-02T03:52:06;98131.45;;;19.41;72.88
20228;BME280;12195;55.790;37.572;2023-07-02T03:54:53;98143.27;;;19.83;72.25
20228;BME280;12195;55.790;37.572;2023-07-02T03:57:37;98147.40;;;19.86;72.47
20228;BME280;12195;55.790;37.572;2023-07-02T04:00:10;98139.72;;;19.68;71.48
20228;BME280;12195;55.790;37.572;2023-07-02T04:02:54;98141.75;;;20.03;71.49
20228;BME280;12195;55.790;37.572;2023-07-02T04:05:28;98128.75;;;19.86;70.81
20228;BME280;12195;55.790;37.572;2023-07-02T04:08:00;98127.38;;;19.90;70.43
20228;BME280;12195;55.790;37.572;2023-07-02T04:10:42;98147.31;;;20.16;69.92
20228;BME280;12195;55.790;37.572;2023-07-02T04:13:26;98154.56;;;20.22;69.43
20228;BME280;12195;55.790;37.572;2023-07-02T04:16:09;98141.72;;;20.26;68.93
20228;BME280;12195;55.790;37.572;2023-07-02T04:18:42;98138.25;;;20.03;68.31
20228;BME280;12195;55.790;37.572;2023-07-02T04:21:24;98149.99;;;20.31;68.73
20228;BME280;12195;55.790;37.572;2023-07-02T04:23:57;98137.28;;;20.18;68.25
20228;BME280;12195;55.790;37.572;2023-07-02T04:26:40;98153.20;;;20.55;68.01
20228;BME280;12195;55.790;37.572;2023-07-02T04:29:15;98158.00;;;20.45;67.45
20228;BME280;12195;55.790;37.572;2023-07-02T04:31:57;98154.04;;;20.71;67.66
20228;BME280;12195;55.790;37.572;2023-07-02T04:34:30;98150.18;;;20.58;67.15
20228;BME280;12195;55.790;37.572;2023-07-02T04:37:14;98152.93;;;20.94;66.93
20228;BME280;12195;55.790;37.572;2023-07-02T04:39:46;98147.48;;;20.88;65.86
20228;BME280;12195;55.790;37.572;2023-07-02T04:42:30;98166.10;;;21.31;65.36
20228;BME280;12195;55.790;37.572;2023-07-02T04:45:15;98162.39;;;21.47;64.71
20228;BME280;12195;55.790;37.572;2023-07-02T04:48:00;98161.88;;;21.58;64.84
20228;BME280;12195;55.790;37.572;2023-07-02T04:50:33;98157.98;;;21.60;63.62
20228;BME280;12195;55.790;37.572;2023-07-02T04:53:18;98167.62;;;21.97;63.45
20228;BME280;12195;55.790;37.572;2023-07-02T04:55:51;98161.39;;;21.90;62.46
20228;BME280;12195;55.790;37.572;2023-07-02T04:58:35;98169.23;;;22.19;62.42
20228;BME280;12195;55.790;37.572;2023-07-02T05:01:08;98163.63;;;21.86;62.29
20228;BME280;12195;55.790;37.572;2023-07-02T05:03:50;98162.23;;;22.18;62.98
20228;BME280;12195;55.790;37.572;2023-07-02T05:06:36;98168.67;;;22.23;62.44
20228;BME280;12195;55.790;37.572;2023-07-02T05:09:09;98157.17;;;22.02;61.64
20228;BME280;12195;55.790;37.572;2023-07-02T05:11:53;98166.23;;;22.28;62.12
20228;BME280;12195;55.790;37.572;2023-07-02T05:14:26;98155.77;;;22.06;61.73
20228;BME280;12195;55.790;37.572;2023-07-02T05:17:08;98162.33;;;22.31;61.80
20228;BME280;12195;55.790;37.572;2023-07-02T05:19:41;98165.89;;;22.10;61.47
20228;BME280;12195;55.790;37.572;2023-07-02T05:22:24;98164.02;;;22.38;61.48
20228;BME280;12195;55.790;37.572;2023-07-02T05:24:56;98158.68;;;22.11;60.95
20228;BME280;12195;55.790;37.572;2023-07-02T05:27:39;98162.83;;;22.41;61.33
20228;BME280;12195;55.790;37.572;2023-07-02T05:30:12;98160.19;;;22.20;60.71
20228;BME280;12195;55.790;37.572;2023-07-02T05:33:16;98167.22;;;22.48;61.09
20228;BME280;12195;55.790;37.572;2023-07-02T05:36:02;98157.48;;;22.41;61.01
20228;BME280;12195;55.790;37.572;2023-07-02T05:38:34;98157.58;;;21.78;62.18
20228;BME280;12195;55.790;37.572;2023-07-02T05:44:04;98168.80;;;22.43;60.85
20228;BME280;12195;55.790;37.572;2023-07-02T05:46:36;98173.03;;;22.31;60.45
20228;BME280;12195;55.790;37.572;2023-07-02T05:49:20;98176.39;;;22.67;59.97
20228;BME280;12195;55.790;37.572;2023-07-02T05:52:05;98174.43;;;22.82;59.28
20228;BME280;12195;55.790;37.572;2023-07-02T05:54:49;98178.14;;;22.87;58.64
20228;BME280;12195;55.790;37.572;2023-07-02T05:57:33;98173.59;;;22.81;58.68
20228;BME280;12195;55.790;37.572;2023-07-02T06:00:06;98167.22;;;22.48;58.23
20228;BME280;12195;55.790;37.572;2023-07-02T06:02:53;98178.53;;;22.78;58.29
20228;BME280;12195;55.790;37.572;2023-07-02T06:05:27;98170.09;;;22.47;58.37
20228;BME280;12195;55.790;37.572;2023-07-02T06:08:10;98173.17;;;22.78;58.20
20228;BME280;12195;55.790;37.572;2023-07-02T06:10:43;98170.97;;;22.54;57.99
20228;BME280;12195;55.790;37.572;2023-07-02T06:13:28;98175.88;;;22.84;58.29
20228;BME280;12195;55.790;37.572;2023-07-02T06:16:00;98183.36;;;22.61;58.05
20228;BME280;12195;55.790;37.572;2023-07-02T06:18:44;98185.02;;;22.96;57.59
20228;BME280;12195;55.790;37.572;2023-07-02T06:21:17;98180.95;;;22.73;57.20
20228;BME280;12195;55.790;37.572;2023-07-02T06:24:03;98193.29;;;23.08;56.98
20228;BME280;12195;55.790;37.572;2023-07-02T06:26:36;98177.72;;;22.84;56.70
20228;BME280;12195;55.790;37.572;2023-07-02T06:29:09;98177.61;;;23.05;56.42
20228;BME280;12195;55.790;37.572;2023-07-02T06:31:42;98184.33;;;23.28;56.12
20228;BME280;12195;55.790;37.572;2023-07-02T06:34:24;98185.23;;;23.55;56.24
20228;BME280;12195;55.790;37.572;2023-07-02T06:36:56;98184.97;;;23.30;55.26
20228;BME280;12195;55.790;37.572;2023-07-02T06:39:39;98185.88;;;23.57;55.12
20228;BME280;12195;55.790;37.572;2023-07-02T06:42:12;98175.91;;;23.38;54.02
20228;BME280;12195;55.790;37.572;2023-07-02T06:44:59;98184.27;;;23.82;54.46
20228;BME280;12195;55.790;37.572;2023-07-02T06:47:42;98185.30;;;23.81;54.10
20228;BME280;12195;55.790;37.572;2023-07-02T06:50:15;98179.30;;;23.79;52.98
20228;BME280;12195;55.790;37.572;2023-07-02T06:53:00;98173.60;;;24.27;53.72
20228;BME280;12195;55.790;37.572;2023-07-02T06:55:42;98181.41;;;24.35;53.35
20228;BME280;12195;55.790;37.572;2023-07-02T06:58:28;98181.84;;;24.39;53.37
20228;BME280;12195;55.790;37.572;2023-07-02T07:01:11;98178.55;;;24.04;54.93
20228;BME280;12195;55.790;37.572;2023-07-02T07:03:55;98178.97;;;24.27;53.76
20228;BME280;12195;55.790;37.572;2023-07-02T07:06:30;98180.39;;;24.17;52.35
20228;BME280;12195;55.790;37.572;2023-07-02T07:09:15;98180.97;;;24.58;51.82
20228;BME280;12195;55.790;37.572;2023-07-02T07:11:49;98177.29;;;24.52;51.02
20228;BME280;12195;55.790;37.572;2023-07-02T07:14:32;98192.89;;;25.01;50.85
20228;BME280;12195;55.790;37.572;2023-07-02T07:17:05;98190.66;;;24.85;49.74
20228;BME280;12195;55.790;37.572;2023-07-02T07:19:49;98191.56;;;25.23;49.29
20228;BME280;12195;55.790;37.572;2023-07-02T07:22:22;98193.75;;;24.95;48.61
20228;BME280;12195;55.790;37.572;2023-07-02T07:25:05;98187.47;;;25.14;49.38
20228;BME280;12195;55.790;37.572;2023-07-02T07:27:38;98195.97;;;25.04;48.73
20228;BME280;12195;55.790;37.572;2023-07-02T07:30:20;98194.56;;;25.53;48.67
20228;BME280;12195;55.790;37.572;2023-07-02T07:32:56;98186.60;;;25.33;47.58
20228;BME280;12195;55.790;37.572;2023-07-02T07:35:29;98194.03;;;25.31;46.67
20228;BME280;12195;55.790;37.572;2023-07-02T07:38:13;98194.17;;;25.49;46.59
20228;BME280;12195;55.790;37.572;2023-07-02T07:41:00;98208.10;;;25.27;47.13
20228;BME280;12195;55.790;37.572;2023-07-02T07:43:34;98196.09;;;24.65;47.73
20228;BME280;12195;55.790;37.572;2023-07-02T07:46:16;98211.96;;;24.80;48.69
20228;BME280;12195;55.790;37.572;2023-07-02T07:48:59;98205.14;;;24.84;48.67
20228;BME280;12195;55.790;37.572;2023-07-02T07:51:32;98193.98;;;24.74;47.81
20228;BME280;12195;55.790;37.572;2023-07-02T07:54:18;98199.02;;;25.21;48.12
20228;BME280;12195;55.790;37.572;2023-07-02T07:56:51;98183.97;;;25.14;46.33
20228;BME280;12195;55.790;37.572;2023-07-02T07:59:34;98198.01;;;25.66;46.12
20228;BME280;12195;55.790;37.572;2023-07-02T08:02:07;98190.74;;;25.67;44.39
20228;BME280;12195;55.790;37.572;2023-07-02T08:04:52;98189.16;;;25.97;44.38
20228;BME280;12195;55.790;37.572;2023-07-02T08:07:24;98182.13;;;25.58;44.04
20228;BME280;12195;55.790;37.572;2023-07-02T08:10:11;98183.59;;;25.85;44.15
20228;BME280;12195;55.790;37.572;2023-07-02T08:12:43;98188.20;;;25.41;44.06
20228;BME280;12195;55.790;37.572;2023-07-02T08:15:27;98201.93;;;26.01;44.11
20228;BME280;12195;55.790;37.572;2023-07-02T08:18:11;98201.02;;;26.14;44.03
20228;BME280;12195;55.790;37.572;2023-07-02T08:20:44;98194.34;;;25.85;43.30
20228;BME280;12195;55.790;37.572;2023-07-02T08:23:27;98206.35;;;26.20;43.82
20228;BME280;12195;55.790;37.572;2023-07-02T08:26:00;98196.02;;;25.86;42.82
20228;BME280;12195;55.790;37.572;2023-07-02T08:28:44;98202.72;;;26.08;42.92
20228;BME280;12195;55.790;37.572;2023-07-02T08:31:27;98201.98;;;25.95;42.99
20228;BME280;12195;55.790;37.572;2023-07-02T08:33:59;98197.50;;;25.45;43.01
20228;BME280;12195;55.790;37.572;2023-07-02T08:36:42;98206.25;;;25.71;43.85
20228;BME280;12195;55.790;37.572;2023-07-02T08:39:17;98188.13;;;25.54;43.37
20228;BME280;12195;55.790;37.572;2023-07-02T08:42:01;98190.95;;;26.03;43.45
20228;BME280;12195;55.790;37.572;2023-07-02T08:44:34;98184.98;;;26.01;42.84
20228;BME280;12195;55.790;37.572;2023-07-02T08:47:17;98192.50;;;26.41;42.61
20228;BME280;12195;55.790;37.572;2023-07-02T08:49:50;98188.56;;;26.19;42.48
20228;BME280;12195;55.790;37.572;2023-07-02T08:52:33;98195.07;;;26.54;42.76
20228;BME280;12195;55.790;37.572;2023-07-02T08:55:06;98188.27;;;26.52;42.21
20228;BME280;12195;55.790;37.572;2023-07-02T08:57:52;98193.08;;;26.92;42.05
20228;BME280;12195;55.790;37.572;2023-07-02T09:00:37;98199.12;;;27.06;41.60
20228;BME280;12195;55.790;37.572;2023-07-02T09:03:21;98202.95;;;26.98;42.05
20228;BME280;12195;55.790;37.572;2023-07-02T09:05:54;98194.10;;;26.91;40.03
20228;BME280;12195;55.790;37.572;2023-07-02T09:08:38;98202.66;;;27.24;41.03
20228;BME280;12195;55.790;37.572;2023-07-02T09:11:15;98191.88;;;26.88;40.83
20228;BME280;12195;55.790;37.572;2023-07-02T09:13:59;98191.88;;;27.24;38.86
20228;BME280;12195;55.790;37.572;2023-07-02T09:16:42;98203.36;;;27.20;36.39
20228;BME280;12195;55.790;37.572;2023-07-02T09:19:15;98201.56;;;26.71;35.05
20228;BME280;12195;55.790;37.572;2023-07-02T09:22:01;98213.35;;;27.13;35.52
20228;BME280;12195;55.790;37.572;2023-07-02T09:24:34;98208.91;;;26.64;36.42
20228;BME280;12195;55.790;37.572;2023-07-02T09:27:18;98214.63;;;26.92;37.18
20228;BME280;12195;55.790;37.572;2023-07-02T09:29:51;98206.23;;;26.33;36.66
20228;BME280;12195;55.790;37.572;2023-07-02T09:32:35;98210.92;;;26.44;37.49
20228;BME280;12195;55.790;37.572;2023-07-02T09:35:19;98218.37;;;26.42;38.10
20228;BME280;12195;55.790;37.572;2023-07-02T09:38:03;98203.81;;;26.74;37.69
20228;BME280;12195;55.790;37.572;2023-07-02T09:40:37;98209.75;;;26.83;36.04
20228;BME280;12195;55.790;37.572;2023-07-02T09:43:21;98210.53;;;27.26;35.43
20228;BME280;12195;55.790;37.572;2023-07-02T09:45:55;98207.20;;;27.06;35.75
20228;BME280;12195;55.790;37.572;2023-07-02T09:48:38;98204.11;;;27.27;34.94
20228;BME280;12195;55.790;37.572;2023-07-02T09:51:11;98198.00;;;26.77;34.89
20228;BME280;12195;55.790;37.572;2023-07-02T09:53:53;98206.00;;;27.02;35.15
20228;BME280;12195;55.790;37.572;2023-07-02T09:56:27;98192.17;;;26.80;35.19
20228;BME280;12195;55.790;37.572;2023-07-02T09:59:10;98202.13;;;27.16;35.53
20228;BME280;12195;55.790;37.572;2023-07-02T10:01:43;98203.27;;;27.08;35.36
20228;BME280;12195;55.790;37.572;2023-07-02T10:04:27;98201.94;;;27.65;35.61
20228;BME280;12195;55.790;37.572;2023-07-02T10:07:11;98194.00;;;27.99;34.60
20228;BME280;12195;55.790;37.572;2023-07-02T10:09:45;98189.38;;;27.88;33.90
20228;BME280;12195;55.790;37.572;2023-07-02T10:12:30;98198.52;;;28.28;34.16
20228;BME280;12195;55.790;37.572;2023-07-02T10:15:23;98210.69;;;27.78;35.00
20228;BME280;12195;55.790;37.572;2023-07-02T10:18:02;98206.68;;;28.10;34.70
20228;BME280;12195;55.790;37.572;2023-07-02T10:20:37;98204.59;;;28.12;33.77
20228;BME280;12195;55.790;37.572;2023-07-02T10:23:10;98193.46;;;28.32;32.32
20228;BME280;12195;55.790;37.572;2023-07-02T10:25:54;98202.91;;;28.75;32.04
20228;BME280;12195;55.790;37.572;2023-07-02T10:28:27;98206.28;;;28.36;32.31
20228;BME280;12195;55.790;37.572;2023-07-02T10:31:21;98207.83;;;28.55;32.87
20228;BME280;12195;55.790;37.572;2023-07-02T10:33:54;98202.12;;;28.11;31.50
20228;BME280;12195;55.790;37.572;2023-07-02T10:36:38;98222.70;;;28.23;32.40
20228;BME280;12195;55.790;37.572;2023-07-02T10:39:11;98205.41;;;27.54;32.44
20228;BME280;12195;55.790;37.572;2023-07-02T10:41:44;98211.28;;;27.33;32.94
20228;BME280;12195;55.790;37.572;2023-07-02T10:44:30;98219.06;;;27.41;33.41
20228;BME280;12195;55.790;37.572;2023-07-02T10:47:14;98226.75;;;27.19;34.52
20228;BME280;12195;55.790;37.572;2023-07-02T10:49:47;98196.65;;;26.86;34.64
20228;BME280;12195;55.790;37.572;2023-07-02T10:52:20;98205.78;;;27.03;34.91
20228;BME280;12195;55.790;37.572;2023-07-02T10:55:05;98209.03;;;27.48;34.67
20228;BME280;12195;55.790;37.572;2023-07-02T10:57:39;98200.05;;;27.36;35.01
20228;BME280;12195;55.790;37.572;2023-07-02T11:00:21;98204.23;;;27.79;33.80
20228;BME280;12195;55.790;37.572;2023-07-02T11:02:54;98206.03;;;27.38;33.61
20228;BME280;12195;55.790;37.572;2023-07-02T11:05:39;98221.63;;;27.65;33.53
20228;BME280;12195;55.790;37.572;2023-07-02T11:08:13;98217.20;;;27.23;32.89
20228;BME280;12195;55.790;37.572;2023-07-02T11:11:06;98216.28;;;27.47;32.78
20228;BME280;12195;55.790;37.572;2023-07-02T11:13:47;98204.83;;;27.16;33.64
20228;BME280;12195;55.790;37.572;2023-07-02T11:16:33;98211.00;;;27.70;33.37
20228;BME280;12195;55.790;37.572;2023-07-02T11:19:20;98222.11;;;28.33;32.70
20228;BME280;12195;55.790;37.572;2023-07-02T11:21:54;98219.70;;;29.23;30.75
20228;BME280;12195;55.790;37.572;2023-07-02T11:24:41;98231.57;;;29.74;30.73
20228;BME280;12195;55.790;37.572;2023-07-02T11:27:20;98224.37;;;29.40;30.33
20228;BME280;12195;55.790;37.572;2023-07-02T11:30:00;98224.27;;;29.23;30.54
20228;BME280;12195;55.790;37.572;2023-07-02T11:32:54;98223.70;;;28.86;31.54
20228;BME280;12195;55.790;37.572;2023-07-02T11:35:34;98212.23;;;29.42;29.58
20228;BME280;12195;55.790;37.572;2023-07-02T11:38:18;98206.89;;;31.57;27.80
20228;BME280;12195;55.790;37.572;2023-07-02T11:40:51;98204.28;;;33.24;24.54
20228;BME280;12195;55.790;37.572;2023-07-02T11:43:35;98222.16;;;33.52;23.87
20228;BME280;12195;55.790;37.572;2023-07-02T11:46:09;98204.04;;;33.31;23.66
20228;BME280;12195;55.790;37.572;2023-07-02T11:48:52;98209.27;;;35.04;22.74
20228;BME280;12195;55.790;37.572;2023-07-02T11:51:25;98204.54;;;36.37;20.09
20228;BME280;12195;55.790;37.572;2023-07-02T11:54:11;98226.23;;;37.90;18.98
20228;BME280;12195;55.790;37.572;2023-07-02T11:57:00;98216.95;;;37.67;19.87
20228;BME280;12195;55.790;37.572;2023-07-02T11:59:33;98208.13;;;35.30;21.04
20228;BME280;12195;55.790;37.572;2023-07-02T12:02:17;98216.92;;;34.42;22.62
20228;BME280;12195;55.790;37.572;2023-07-02T12:04:50;98208.58;;;32.74;24.45
20228;BME280;12195;55.790;37.572;2023-07-02T12:07:34;98218.96;;;33.80;24.07
20228;BME280;12195;55.790;37.572;2023-07-02T12:10:08;98210.06;;;35.15;21.62
20228;BME280;12195;55.790;37.572;2023-07-02T12:12:53;98211.14;;;38.11;19.96
20228;BME280;12195;55.790;37.572;2023-07-02T12:15:37;98216.64;;;40.15;17.68
20228;BME280;12195;55.790;37.572;2023-07-02T12:18:10;98210.06;;;41.04;15.91
20228;BME280;12195;55.790;37.572;2023-07-02T12:20:54;98218.03;;;43.40;15.30
20228;BME280;12195;55.790;37.572;2023-07-02T12:23:26;98205.42;;;43.89;13.55
20228;BME280;12195;55.790;37.572;2023-07-02T12:26:14;98212.41;;;45.70;12.85
20228;BME280;12195;55.790;37.572;2023-07-02T12:28:47;98201.77;;;44.91;12.56
20228;BME280;12195;55.790;37.572;2023-07-02T12:31:30;98213.92;;;46.31;12.80
20228;BME280;12195;55.790;37.572;2023-07-02T12:34:03;98200.35;;;45.54;12.18
20228;BME280;12195;55.790;37.572;2023-07-02T12:36:46;98211.50;;;47.27;12.37
20228;BME280;12195;55.790;37.572;2023-07-02T12:39:18;98216.27;;;45.21;11.75
20228;BME280;12195;55.790;37.572;2023-07-02T12:42:02;98214.46;;;46.09;12.22
20228;BME280;12195;55.790;37.572;2023-07-02T12:44:46;98213.42;;;46.01;11.50
20228;BME280;12195;55.790;37.572;2023-07-02T12:47:19;98203.41;;;43.69;12.44
20228;BME280;12195;55.790;37.572;2023-07-02T12:50:02;98211.08;;;43.63;12.78
20228;BME280;12195;55.790;37.572;2023-07-02T12:52:35;98199.63;;;41.71;13.82
20228;BME280;12195;55.790;37.572;2023-07-02T12:55:19;98208.46;;;42.49;14.00
20228;BME280;12195;55.790;37.572;2023-07-02T12:58:03;98210.25;;;42.79;13.43
20228;BME280;12195;55.790;37.572;2023-07-02T13:00:36;98197.85;;;42.94;13.12
20228;BME280;12195;55.790;37.572;2023-07-02T13:03:24;98206.78;;;44.03;12.44
20228;BME280;12195;55.790;37.572;2023-07-02T13:06:09;98216.73;;;41.98;14.04
20228;BME280;12195;55.790;37.572;2023-07-02T13:08:53;98216.02;;;39.55;16.24
20228;BME280;12195;55.790;37.572;2023-07-02T13:11:27;98203.17;;;38.65;16.83
20228;BME280;12195;55.790;37.572;2023-07-02T13:14:09;98216.55;;;39.57;16.66
20228;BME280;12195;55.790;37.572;2023-07-02T13:16:42;98205.92;;;39.64;16.02
20228;BME280;12195;55.790;37.572;2023-07-02T13:19:14;98204.51;;;40.16;15.34
20228;BME280;12195;55.790;37.572;2023-07-02T13:21:57;98215.17;;;40.97;15.62
20228;BME280;12195;55.790;37.572;2023-07-02T13:24:34;98207.72;;;40.67;14.94
20228;BME280;12195;55.790;37.572;2023-07-02T13:27:21;98205.90;;;41.54;14.62
20228;BME280;12195;55.790;37.572;2023-07-02T13:29:53;98206.39;;;41.17;14.54
20228;BME280;12195;55.790;37.572;2023-07-02T13:32:38;98209.42;;;42.79;13.55
20228;BME280;12195;55.790;37.572;2023-07-02T13:35:22;98211.07;;;42.37;14.37
20228;BME280;12195;55.790;37.572;2023-07-02T13:37:55;98198.53;;;41.89;13.79
20228;BME280;12195;55.790;37.572;2023-07-02T13:40:39;98205.84;;;43.70;13.39
20228;BME280;12195;55.790;37.572;2023-07-02T13:43:12;98195.69;;;43.16;13.02
20228;BME280;12195;55.790;37.572;2023-07-02T13:45:55;98207.12;;;44.63;12.45
20228;BME280;12195;55.790;37.572;2023-07-02T13:48:28;98188.55;;;44.02;12.26
20228;BME280;12195;55.790;37.572;2023-07-02T13:51:12;98201.28;;;45.58;12.51
20228;BME280;12195;55.790;37.572;2023-07-02T13:53:45;98195.91;;;44.93;11.91
20228;BME280;12195;55.790;37.572;2023-07-02T13:56:29;98206.79;;;46.18;11.42
20228;BME280;12195;55.790;37.572;2023-07-02T13:59:12;98210.69;;;46.41;11.01